FLUGWETTER MÜNCHEN AIRPORT

[source: ADDS]
METAR
EDDM 310550Z 07005KT 020V100 CAVOK 14/10 Q1022 NOSIG =
TAF
TAF EDDM 310500Z 3106/0112 07006KT CAVOK BECMG 3122/3124 24005KT =
SR / SS: 04:31 / 17:56 UTC (Tag 2016-08-31)

QR-Code dieser Seite

QR-Code dieser Seite